^^
Station Historical Data
 
Daily Summary for June 27, 2017 Units:  Metric    English   Both
« Previous Day
Next Day »
Daily Weekly Monthly Yearly Custom
  Current: High: Low: Average:
Temperature: 31.9 °C 31.9 °C 16.4 °C 22.9 °C
Dew Point: 19.9 °C 20.3 °C 14.2 °C 17.7 °C
Humidity: 49% 90% 49% 74%
Wind Speed: 0km/h 8km/h 0km/h 0.6km/h
Wind Gust: 4.8km/h 12.9km/h - -
WindCalm - - SW
Pressure: 1011.1 hPa 1013.1 hPa 1011.1 hPa -
Precipitation: 0 mm      
Historical Graphs
 
 
Tabular Data for June 27, 2017
Time Temperature Dew Point Pressure Wind Wind Speed Wind Gust Humidity Rainfall Rate (Hourly) solar Conditions
00:00 22.1 °C 18.1 °C 1013.1 hPa Calm     78% 0 mm WeatherDisplay:10.37 W/m2 CLR
00:10 21.9 °C 17.9 °C 1013.1 hPa Calm     78% 0 mm WeatherDisplay:10.37 W/m2 CLR
00:20 21.8 °C 17.8 °C 1012.8 hPa Calm     78% 0 mm WeatherDisplay:10.37 W/m2 CLR
00:30 21.6 °C 17.8 °C 1013.1 hPa Calm     79% 0 mm WeatherDisplay:10.37 W/m2 CLR
00:40 21.4 °C 17.6 °C 1012.8 hPa Calm     79% 0 mm WeatherDisplay:10.37 W/m2 CLR
00:50 21.3 °C 17.7 °C 1012.8 hPa Calm     80% 0 mm WeatherDisplay:10.37 W/m2 CLR
01:00 21 °C 17.4 °C 1012.8 hPa Calm     80% 0 mm WeatherDisplay:10.37 W/m2 CLR
01:10 20.9 °C 17.3 °C 1012.8 hPa Calm     80% 0 mm WeatherDisplay:10.37 W/m2 CLR
01:20 20.7 °C 17.3 °C 1012.8 hPa Calm     81% 0 mm WeatherDisplay:10.37 W/m2 CLR
01:30 20.5 °C 17.1 °C 1013.1 hPa Calm     81% 0 mm WeatherDisplay:10.37 W/m2 CLR
01:40 20.3 °C 17 °C 1012.8 hPa Calm     81% 0 mm WeatherDisplay:10.37 W/m2 CLR
01:50 20.2 °C 17 °C 1012.8 hPa Calm     82% 0 mm WeatherDisplay:10.37 W/m2 CLR
02:10 19.8 °C 16.8 °C 1012.8 hPa Calm     83% 0 mm WeatherDisplay:10.37 W/m2 CLR
02:20 19.6 °C 16.6 °C 1012.4 hPa Calm     83% 0 mm WeatherDisplay:10.37 W/m2 CLR
02:30 19.4 °C 16.4 °C 1012.8 hPa Calm     83% 0 mm WeatherDisplay:10.37 W/m2 CLR
02:40 19.3 °C 16.5 °C 1012.4 hPa Calm     84% 0 mm WeatherDisplay:10.37 W/m2 CLR
02:50 19.1 °C 16.3 °C 1012.4 hPa Calm     84% 0 mm WeatherDisplay:10.37 W/m2 CLR
03:00 18.9 °C 16.1 °C 1012.4 hPa Calm     84% 0 mm WeatherDisplay:10.37 W/m2 CLR
03:10 18.9 °C 16.3 °C 1012.4 hPa Calm     85% 0 mm WeatherDisplay:10.37 W/m2 CLR
03:20 18.7 °C 15.9 °C 1012.4 hPa Calm     84% 0 mm WeatherDisplay:10.37 W/m2 CLR
03:30 18.5 °C 15.9 °C 1012.4 hPa Calm     85% 0 mm WeatherDisplay:10.37 W/m2 CLR
03:40 18.3 °C 15.7 °C 1012.4 hPa Calm     85% 0 mm WeatherDisplay:10.37 W/m2 CLR
03:50 18.1 °C 15.6 °C 1012.4 hPa Calm     85% 0 mm WeatherDisplay:10.37 W/m2 CLR
04:00 17.9 °C 15.3 °C 1012.4 hPa Calm     85% 0 mm WeatherDisplay:10.37 W/m2 CLR
04:10 17.7 °C 15.2 °C 1012.4 hPa Calm     85% 0 mm WeatherDisplay:10.37 W/m2 CLR
04:20 17.4 °C 14.8 °C 1012.4 hPa Calm     85% 0 mm WeatherDisplay:10.37 W/m2 CLR
04:30 17.3 °C 14.8 °C 1012.4 hPa Calm     85% 0 mm WeatherDisplay:10.37 W/m2 CLR
04:40 17.2 °C 14.8 °C 1012.4 hPa Calm     86% 0 mm WeatherDisplay:10.37 W/m2 CLR
04:50 17.1 °C 14.7 °C 1012.8 hPa Calm     86% 0 mm WeatherDisplay:10.37 W/m2 CLR
05:00 16.9 °C 14.6 °C 1012.8 hPa Calm     86% 0 mm WeatherDisplay:10.37 W/m2 CLR
05:10 16.9 °C 14.6 °C 1012.8 hPa Calm     86% 0 mm WeatherDisplay:10.37 W/m2 CLR
05:20 16.8 °C 14.6 °C 1012.8 hPa Calm     87% 0 mm WeatherDisplay:10.37 W/m2 CLR
05:30 16.8 °C 14.6 °C 1012.8 hPa Calm     87% 0 mm WeatherDisplay:10.37 W/m2 CLR
05:40 16.6 °C 14.4 °C 1012.8 hPa Calm     87% 0 mm WeatherDisplay:10.37 W/m2 CLR
05:50 16.5 °C 14.3 °C 1012.8 hPa Calm     87% 0 mm WeatherDisplay:10.37 W/m2 CLR
06:00 16.4 °C 14.3 °C 1012.4 hPa Calm     87% 0 mm WeatherDisplay:10.37 W/m2 CLR
06:10 16.4 °C 14.2 °C 1012.4 hPa Calm     87% 0 mm WeatherDisplay:10.37 W/m2 CLR
06:20 16.4 °C 14.4 °C 1012.8 hPa Calm     88% 0 mm WeatherDisplay:10.37 W/m2 CLR
06:30 16.5 °C 14.7 °C 1012.8 hPa Calm     89% 0 mm WeatherDisplay:10.37 W/m2 CLR
06:40 16.7 °C 15.1 °C 1012.8 hPa Calm     90% 0 mm WeatherDisplay:10.37 W/m2 CLR
06:50 16.9 °C 15.2 °C 1012.8 hPa Calm     90% 0 mm WeatherDisplay:10.37 W/m2 CLR
07:00 17.2 °C 15.5 °C 1012.8 hPa Calm     90% 0 mm WeatherDisplay:10.37 W/m2 CLR
07:10 17.4 °C 15.7 °C 1012.8 hPa Calm     90% 0 mm WeatherDisplay:10.37 W/m2 CLR
07:20 17.8 °C 16.1 °C 1012.8 hPa Calm     90% 0 mm WeatherDisplay:10.37 W/m2 CLR
07:30 18.1 °C 16.4 °C 1012.8 hPa Calm     90% 0 mm WeatherDisplay:10.37 W/m2 CLR
07:40 18.7 °C 17 °C 1012.8 hPa Calm     90% 0 mm WeatherDisplay:10.37 W/m2 CLR
07:50 19.3 °C 17.4 °C 1012.8 hPa Calm     89% 0 mm WeatherDisplay:10.37 W/m2 CLR
08:00 19.8 °C 17.9 °C 1012.8 hPa Calm   3.2 km/h 89% 0 mm WeatherDisplay:10.37 W/m2 CLR
08:10 20.6 °C 18.3 °C 1012.8 hPa SSE 1.6 km/h 9.7 km/h 87% 0 mm WeatherDisplay:10.37 W/m2 CLR
08:20 21.6 °C 18.9 °C 1012.4 hPa Calm   4.8 km/h 85% 0 mm WeatherDisplay:10.37 W/m2 CLR
08:30 22.4 °C 19 °C 1012.4 hPa SW 3.2 km/h 9.7 km/h 81% 0 mm WeatherDisplay:10.37 W/m2 CLR
08:40 23.3 °C 19.1 °C 1012.8 hPa SW 3.2 km/h 11.3 km/h 77% 0 mm WeatherDisplay:10.37 W/m2 CLR
08:50 23.9 °C 19 °C 1012.4 hPa SW 3.2 km/h 9.7 km/h 74% 0 mm WeatherDisplay:10.37 W/m2 CLR
09:00 24.6 °C 19.4 °C 1012.4 hPa WSW 1.6 km/h 9.7 km/h 73% 0 mm WeatherDisplay:10.37 W/m2 CLR
09:10 25.2 °C 19.5 °C 1012.1 hPa SW 3.2 km/h 9.7 km/h 71% 0 mm WeatherDisplay:10.37 W/m2 CLR
09:20 25.8 °C 19.7 °C 1012.1 hPa SW 1.6 km/h 8 km/h 69% 0 mm WeatherDisplay:10.37 W/m2 CLR
09:30 26.3 °C 19.9 °C 1012.1 hPa SW 1.6 km/h 8 km/h 68% 0 mm WeatherDisplay:10.37 W/m2 CLR
09:40 26.7 °C 19.6 °C 1012.4 hPa Calm   8 km/h 65% 0 mm WeatherDisplay:10.37 W/m2 CLR
09:50 27.1 °C 19.4 °C 1012.4 hPa Calm   6.4 km/h 63% 0 mm WeatherDisplay:10.37 W/m2 CLR
10:00 27.4 °C 19.5 °C 1012.4 hPa Calm   8 km/h 62% 0 mm WeatherDisplay:10.37 W/m2 CLR
10:10 28 °C 20.3 °C 1012.4 hPa SSW 4.8 km/h 8 km/h 63% 0 mm WeatherDisplay:10.37 W/m2 CLR
10:20 28.4 °C 20.2 °C 1012.4 hPa Calm   8 km/h 61% 0 mm WeatherDisplay:10.37 W/m2 CLR
10:30 28.5 °C 20 °C 1012.1 hPa Calm   11.3 km/h 60% 0 mm WeatherDisplay:10.37 W/m2 CLR
10:40 28.7 °C 20.2 °C 1012.1 hPa WSW 3.2 km/h 8 km/h 60% 0 mm WeatherDisplay:10.37 W/m2 CLR
10:50 28.9 °C 20.3 °C 1012.1 hPa SW 8 km/h 11.3 km/h 60% 0 mm WeatherDisplay:10.37 W/m2 CLR
11:00 29.1 °C 20.2 °C 1012.1 hPa WSW 1.6 km/h 9.7 km/h 59% 0 mm WeatherDisplay:10.37 W/m2 CLR
11:10 29.3 °C 19.9 °C 1012.1 hPa Calm   9.7 km/h 57% 0 mm WeatherDisplay:10.37 W/m2 CLR
11:20 29.5 °C 20.1 °C 1012.1 hPa SSW 3.2 km/h 8 km/h 57% 0 mm WeatherDisplay:10.37 W/m2 CLR
11:30 29.8 °C 19.8 °C 1011.7 hPa SSW 1.6 km/h 8 km/h 55% 0 mm WeatherDisplay:10.37 W/m2 CLR
11:40 29.9 °C 19.9 °C 1012.1 hPa Calm   8 km/h 55% 0 mm WeatherDisplay:10.37 W/m2 CLR
11:50 30.1 °C 19.8 °C 1012.1 hPa Calm   8 km/h 54% 0 mm WeatherDisplay:10.37 W/m2 CLR
12:00 30.3 °C 19.9 °C 1011.7 hPa Calm   8 km/h 54% 0 mm WeatherDisplay:10.37 W/m2 CLR
12:10 30.3 °C 19.9 °C 1011.7 hPa SW 4.8 km/h 9.7 km/h 54% 0 mm WeatherDisplay:10.37 W/m2 CLR
12:20 30.5 °C 20.2 °C 1011.7 hPa SW 1.6 km/h 11.3 km/h 54% 0 mm WeatherDisplay:10.37 W/m2 CLR
12:30 30.6 °C 19.9 °C 1011.7 hPa Calm   12.9 km/h 53% 0 mm WeatherDisplay:10.37 W/m2 CLR
12:40 30.7 °C 20.1 °C 1011.4 hPa SW 1.6 km/h 11.3 km/h 53% 0 mm WeatherDisplay:10.37 W/m2 CLR
12:50 30.9 °C 19.9 °C 1011.7 hPa Calm   11.3 km/h 52% 0 mm WeatherDisplay:10.37 W/m2 CLR
13:00 30.9 °C 19.9 °C 1011.4 hPa SW 1.6 km/h 9.7 km/h 52% 0 mm WeatherDisplay:10.37 W/m2 CLR
13:10 31 °C 19.7 °C 1011.1 hPa Calm   8 km/h 51% 0 mm WeatherDisplay:10.37 W/m2 CLR
13:20 31.2 °C 19.6 °C 1011.4 hPa Calm   8 km/h 50% 0 mm WeatherDisplay:10.37 W/m2 CLR
13:30 31.3 °C 19.9 °C 1011.1 hPa Calm   1.6 km/h 51% 0 mm WeatherDisplay:10.37 W/m2 CLR
13:40 31.5 °C 19.8 °C 1011.1 hPa Calm   9.7 km/h 50% 0 mm WeatherDisplay:10.37 W/m2 CLR
13:50 31.6 °C 19.9 °C 1011.1 hPa Calm   8 km/h 50% 0 mm WeatherDisplay:10.37 W/m2 CLR
14:00 31.9 °C 19.8 °C 1011.1 hPa SE 3.2 km/h 8 km/h 49% 0 mm WeatherDisplay:10.37 W/m2 CLR
14:10 31.9 °C 19.9 °C 1011.1 hPa Calm   4.8 km/h 49% 0 mm WeatherDisplay:10.37 W/m2 CLR
Knjazevac, Serbia
Compliments of Weather Underground - 1.25 mb